Time;durP1;ratioP1;P1;durP2;ratioP2;P2;SDS_P1;SDS_P2;PMS_P1;PMS_P2;Temp;Humidity;BMP_temperature;BMP_pressure;BME280_temperature;BME280_humidity;BME280_pressure;Samples;Min_cycle;Max_cycle;Signal;HPM_P1;HPM_P2
2022/11/02 00:00:47;;;;;;;;;2.00;1.67;;;;;14.30;100.00;101193.41;4952587;28;44817;-82
2022/11/02 00:03:13;;;;;;;;;1.00;1.00;;;;;14.24;100.00;101184.41;4951982;28;44935;-82
2022/11/02 00:05:47;;;;;;;;;2.00;0.00;;;;;14.21;100.00;101196.91;4953674;28;45396;-83
2022/11/02 00:08:13;;;;;;;;;0.00;0.00;;;;;14.21;100.00;101196.91;4955441;28;45322;-83
2022/11/02 00:10:40;;;;;;;;;1.00;1.00;;;;;14.17;100.00;101189.72;4966961;28;44799;-82
2022/11/02 00:13:05;;;;;;;;;3.00;2.00;;;;;14.13;100.00;101200.41;4959818;28;44972;-83
2022/11/02 00:15:37;;;;;;;;;0.33;0.00;;;;;14.13;100.00;101195.94;4975600;28;45349;-82
2022/11/02 00:18:10;;;;;;;;;3.00;2.00;;;;;14.06;100.00;101194.13;4975369;28;44938;-81
2022/11/02 00:20:38;;;;;;;;;3.00;1.00;;;;;14.04;100.00;101211.94;4975299;28;45499;-83
2022/11/02 00:23:06;;;;;;;;;2.00;1.00;;;;;14.01;100.00;101211.91;4974875;28;45337;-82
2022/11/02 00:25:37;;;;;;;;;1.67;1.67;;;;;14.03;100.00;101228.88;4974470;28;45453;-82
2022/11/02 00:28:11;;;;;;;;;1.00;0.67;;;;;13.95;100.00;101217.22;4973728;28;45332;-82
2022/11/02 00:30:37;;;;;;;;;3.00;2.00;;;;;13.99;100.00;101219.91;4974616;28;45494;-83
2022/11/02 00:33:03;;;;;;;;;2.00;2.00;;;;;13.99;100.00;101227.94;4958037;28;45226;-82
2022/11/02 00:35:30;;;;;;;;;1.00;1.00;;;;;13.96;100.00;101235.94;4975108;28;46265;-82
2022/11/02 00:37:56;;;;;;;;;1.00;1.00;;;;;13.93;100.00;101235.03;4956844;28;44764;-83
2022/11/02 00:40:21;;;;;;;;;2.00;1.00;;;;;13.94;100.00;101242.19;4957378;28;45377;-82
2022/11/02 00:43:42;;;;;;;;;2.00;1.00;;;;;13.97;100.00;101242.19;4973699;28;44808;-82
2022/11/02 00:46:19;;;;;;;;;1.33;1.00;;;;;13.96;100.00;101246.66;4956615;28;48123;-82
2022/11/02 00:48:44;;;;;;;;;4.00;2.33;;;;;13.95;100.00;101250.19;4957614;28;45264;-82
2022/11/02 00:51:10;;;;;;;;;1.00;1.00;;;;;13.95;100.00;101246.63;4956532;28;45293;-82
2022/11/02 00:53:37;;;;;;;;;1.00;1.00;;;;;13.91;100.00;101242.13;4957244;28;44828;-82
2022/11/02 00:56:03;;;;;;;;;0.67;0.67;;;;;13.94;100.00;101247.53;4956622;28;47524;-82
2022/11/02 00:58:31;;;;;;;;;1.00;1.00;;;;;13.94;100.00;101251.09;4974750;28;45302;-83
2022/11/02 01:00:56;;;;;;;;;2.00;1.00;;;;;13.94;100.00;101253.75;4974340;28;45444;-82
2022/11/02 01:03:26;;;;;;;;;2.00;1.67;;;;;13.94;100.00;101256.44;4956674;28;45377;-83
2022/11/02 01:05:51;;;;;;;;;2.00;2.00;;;;;13.95;100.00;101262.69;4954450;28;46948;-83
2022/11/02 01:08:17;;;;;;;;;0.33;0.33;;;;;13.94;100.00;101274.28;4956939;28;45275;-82
2022/11/02 01:10:55;;;;;;;;;4.00;1.00;;;;;13.91;100.00;101266.22;4962337;28;45518;-82
2022/11/02 01:13:23;;;;;;;;;3.67;1.33;;;;;13.95;100.00;101281.41;4957584;28;45460;-83
2022/11/02 01:15:49;;;;;;;;;1.67;1.00;;;;;13.94;100.00;101274.28;4973082;28;45119;-82
2022/11/02 01:18:18;;;;;;;;;3.67;2.00;;;;;13.93;100.00;101275.13;4956533;28;44844;-82
2022/11/02 01:20:43;;;;;;;;;3.33;2.33;;;;;13.86;100.00;101255.47;4974771;28;45357;-82
2022/11/02 01:23:10;;;;;;;;;4.67;2.00;;;;;13.90;100.00;101277.81;4957438;28;45622;-81
2022/11/02 01:25:35;;;;;;;;;2.00;2.00;;;;;13.87;100.00;101275.97;4975509;28;44958;-82
2022/11/02 01:28:01;;;;;;;;;2.00;1.67;;;;;13.85;100.00;101283.09;4957294;28;45369;-82
2022/11/02 01:30:26;;;;;;;;;1.00;1.00;;;;;13.80;100.00;101283.03;4956441;28;45463;-82
2022/11/02 01:32:52;;;;;;;;;4.00;2.00;;;;;13.72;100.00;101276.72;4972688;28;45417;-82
2022/11/02 01:35:17;;;;;;;;;2.33;1.33;;;;;13.70;100.00;101270.47;4956464;28;46753;-82
2022/11/02 01:37:46;;;;;;;;;1.33;1.33;;;;;13.71;100.00;101279.38;4956744;28;45526;-82
2022/11/02 01:40:12;;;;;;;;;5.33;4.00;;;;;13.70;100.00;101291.88;4974004;28;45324;-81
2022/11/02 01:42:38;;;;;;;;;6.00;2.67;;;;;13.67;100.00;101285.59;4956548;28;45703;-82
2022/11/02 01:45:09;;;;;;;;;3.67;2.33;;;;;13.64;100.00;101283.78;4952938;28;47709;-82
2022/11/02 01:51:03;;;;;;;;;1.67;1.67;;;;;13.67;100.00;101304.28;4969928;28;45460;-82
2022/11/02 01:53:30;;;;;;;;;3.00;1.67;;;;;13.65;100.00;101304.28;4953044;28;45748;-82
2022/11/02 01:55:57;;;;;;;;;2.00;1.00;;;;;13.62;100.00;101306.94;4970283;28;45836;-83
2022/11/02 01:58:23;;;;;;;;;3.33;2.33;;;;;13.62;100.00;101309.59;4971419;28;45450;-82
2022/11/02 02:00:49;;;;;;;;;2.00;2.00;;;;;13.57;100.00;101312.22;4953678;28;44812;-82
2022/11/02 02:03:17;;;;;;;;;3.00;2.00;;;;;13.59;100.00;101317.56;4954112;28;44886;-82
2022/11/02 02:06:05;;;;;;;;;1.00;1.00;;;;;13.57;100.00;101316.66;4969873;28;45407;-83
2022/11/02 02:08:31;;;;;;;;;2.00;2.00;;;;;13.55;100.00;101310.41;4970464;28;45501;-83
2022/11/02 02:10:57;;;;;;;;;0.67;0.67;;;;;13.53;100.00;101309.47;4969729;28;45493;-83
2022/11/02 02:13:26;;;;;;;;;4.00;1.00;;;;;13.47;100.00;101318.34;4970662;28;44878;-83
2022/11/02 02:15:59;;;;;;;;;3.33;2.00;;;;;13.46;100.00;101318.34;4952112;28;46984;-83
2022/11/02 02:18:47;;;;;;;;;2.33;2.33;;;;;13.40;100.00;101325.38;4952669;28;45345;-83
2022/11/02 02:21:30;;;;;;;;;3.00;3.00;;;;;13.38;100.00;101326.25;4970512;28;44844;-83
2022/11/02 02:24:29;;;;;;;;;0.00;0.00;;;;;13.38;100.00;101337.81;4970862;28;45406;-83
2022/11/02 02:27:10;;;;;;;;;1.00;1.00;;;;;13.37;100.00;101341.38;4952914;28;45202;-83
2022/11/02 02:33:00;;;;;;;;;3.33;1.00;;;;;13.35;100.00;101348.50;4970710;28;45275;-83
2022/11/02 02:35:39;;;;;;;;;2.33;2.33;;;;;13.29;100.00;101334.09;4970931;28;45222;-83
2022/11/02 02:38:13;;;;;;;;;1.00;1.00;;;;;13.32;100.00;101347.53;4970646;28;46312;-83
2022/11/02 02:40:42;;;;;;;;;2.00;1.00;;;;;13.28;100.00;101345.69;4953799;28;45647;-82
2022/11/02 02:43:32;;;;;;;;;2.00;1.00;;;;;13.26;100.00;101342.09;4953991;28;45434;-82
2022/11/02 02:46:07;;;;;;;;;3.33;1.00;;;;;13.27;100.00;101350.13;4972396;28;45473;-82
2022/11/02 02:48:35;;;;;;;;;0.00;0.00;;;;;13.27;100.00;101352.81;4956853;28;45068;-82
2022/11/02 02:51:25;;;;;;;;;1.33;1.33;;;;;13.25;100.00;101354.56;4955786;28;44848;-82
2022/11/02 02:53:58;;;;;;;;;3.00;1.00;;;;;13.22;100.00;101354.50;4956348;28;45299;-83
2022/11/02 02:56:30;;;;;;;;;3.00;1.00;;;;;13.23;100.00;101353.66;4973093;28;45416;-82
2022/11/02 02:58:59;;;;;;;;;3.00;2.00;;;;;13.18;100.00;101344.66;4954838;28;45492;-82
2022/11/02 03:01:26;;;;;;;;;5.33;2.00;;;;;13.20;100.00;101350.91;4954543;28;45388;-82
2022/11/02 03:03:56;;;;;;;;;4.00;1.67;;;;;13.15;100.00;101348.19;4971563;28;45270;-82
2022/11/02 03:06:37;;;;;;;;;2.00;2.00;;;;;13.14;100.00;101354.41;4970969;28;45465;-82
2022/11/02 03:09:13;;;;;;;;;2.00;2.00;;;;;13.12;100.00;101355.25;4953938;28;47334;-83
2022/11/02 03:12:04;;;;;;;;;3.00;2.00;;;;;13.06;100.00;101348.06;4972714;28;44893;-82
2022/11/02 03:14:41;;;;;;;;;2.00;2.00;;;;;13.11;100.00;101358.78;4973099;28;44756;-82
2022/11/02 03:17:17;;;;;;;;;3.00;1.00;;;;;13.06;100.00;101363.19;4955677;28;45334;-83
2022/11/02 03:19:48;;;;;;;;;5.00;2.00;;;;;13.06;100.00;101365.88;4972351;28;45444;-83
2022/11/02 03:22:25;;;;;;;;;2.67;2.67;;;;;13.02;100.00;101360.47;4956576;28;45435;-83
2022/11/02 03:25:33;;;;;;;;;2.00;2.00;;;;;13.02;100.00;101359.56;4973588;28;44652;-83
2022/11/02 03:28:21;;;;;;;;;1.00;1.00;;;;;12.97;100.00;101369.31;4957359;28;45682;-83
2022/11/02 03:31:15;;;;;;;;;2.00;2.00;;;;;12.97;100.00;101380.00;4941534;28;48395;-83
2022/11/02 03:33:53;;;;;;;;;4.00;2.00;;;;;12.96;100.00;101384.41;4952718;28;45497;-83
2022/11/02 03:36:25;;;;;;;;;2.75;2.75;;;;;12.86;100.00;101377.13;4958251;28;45395;-83
2022/11/02 03:38:58;;;;;;;;;2.33;2.00;;;;;12.85;100.00;101386.03;4958055;28;45508;-82
2022/11/02 03:41:30;;;;;;;;;3.67;2.00;;;;;12.84;100.00;101384.22;4974745;28;46232;-83
2022/11/02 03:44:02;;;;;;;;;3.67;3.67;;;;;12.85;100.00;101394.06;4957846;28;45386;-83
2022/11/02 03:46:31;;;;;;;;;4.33;3.00;;;;;12.87;100.00;101400.31;4957903;28;45508;-83
2022/11/02 03:49:01;;;;;;;;;4.33;3.33;;;;;12.87;100.00;101396.75;4974632;28;45338;-81
2022/11/02 03:51:30;;;;;;;;;3.67;2.33;;;;;12.87;100.00;101412.78;4957907;28;46757;-83
2022/11/02 03:54:21;;;;;;;;;3.00;3.00;;;;;12.88;100.00;101411.88;4958074;28;45718;-82
2022/11/02 03:56:50;;;;;;;;;5.75;3.00;;;;;12.83;100.00;101411.81;4944733;28;45915;-83
2022/11/02 03:59:16;;;;;;;;;1.75;1.50;;;;;12.84;100.00;101412.69;4974847;28;45188;-83
2022/11/02 04:01:46;;;;;;;;;4.00;4.00;;;;;12.81;100.00;101427.81;4957009;28;46928;-82
2022/11/02 04:04:13;;;;;;;;;4.00;2.50;;;;;12.83;100.00;101417.16;4957691;28;45615;-82
2022/11/02 04:06:45;;;;;;;;;4.67;3.00;;;;;12.79;100.00;101426.88;4975827;28;45414;-82
2022/11/02 04:09:11;;;;;;;;;4.00;1.75;;;;;12.81;100.00;101435.81;4957409;28;45368;-83
2022/11/02 04:14:36;;;;;;;;;5.00;1.00;;;;;12.76;100.00;101431.25;4974065;28;45429;-82
2022/11/02 04:19:55;;;;;;;;;1.67;1.67;;;;;12.75;100.00;101443.72;4975809;28;45406;-82
2022/11/02 04:25:18;;;;;;;;;6.33;2.00;;;;;12.74;100.00;101446.34;4974148;28;45404;-83
2022/11/02 04:27:51;;;;;;;;;3.25;2.25;;;;;12.70;100.00;101434.72;4955863;28;45437;-82
2022/11/02 04:30:20;;;;;;;;;4.00;1.00;;;;;12.66;100.00;101435.53;4955782;28;45346;-82
2022/11/02 04:35:38;;;;;;;;;5.00;3.00;;;;;12.65;100.00;101448.88;4972711;28;45335;-82
2022/11/02 04:41:40;;;;;;;;;5.67;1.67;;;;;12.67;100.00;101465.81;4972704;28;44828;-83
2022/11/02 04:43:39;;;;;;;;;7.67;3.00;;;;;12.63;100.00;101466.66;4970628;28;45991;-83
2022/11/02 04:46:04;;;;;;;;;1.00;1.00;;;;;12.64;100.00;101480.00;4954281;28;45615;-82
2022/11/02 04:48:33;;;;;;;;;2.67;1.00;;;;;12.63;100.00;101477.31;4955470;28;45307;-82
2022/11/02 04:50:59;;;;;;;;;3.67;2.00;;;;;12.63;100.00;101483.53;4953179;28;44930;-83
2022/11/02 04:53:24;;;;;;;;;4.67;2.00;;;;;12.60;100.00;101478.13;4953621;28;45431;-83
2022/11/02 04:55:59;;;;;;;;;3.00;1.00;;;;;12.61;100.00;101485.28;4971836;28;45389;-83
2022/11/02 04:58:27;;;;;;;;;2.00;2.00;;;;;12.56;100.00;101482.56;4954852;28;45562;-83
2022/11/02 05:00:53;;;;;;;;;4.67;3.67;;;;;12.61;100.00;101499.53;4972097;28;45337;-83
2022/11/02 05:03:18;;;;;;;;;2.67;2.67;;;;;12.60;100.00;101495.06;4953606;28;47073;-83
2022/11/02 05:05:44;;;;;;;;;2.00;2.00;;;;;12.60;100.00;101502.16;4972045;28;45352;-83
2022/11/02 05:08:11;;;;;;;;;4.00;3.00;;;;;12.59;100.00;101495.94;4954279;28;45385;-83
2022/11/02 05:10:42;;;;;;;;;3.33;3.00;;;;;12.59;100.00;101505.72;4972561;28;44812;-83
2022/11/02 05:13:14;;;;;;;;;2.67;2.00;;;;;12.57;100.00;101511.00;4950472;28;46933;-83
2022/11/02 05:15:43;;;;;;;;;3.33;3.33;;;;;12.56;100.00;101509.22;4951947;28;44845;-83
2022/11/02 05:18:09;;;;;;;;;2.00;1.33;;;;;12.52;100.00;101503.78;4950130;28;45324;-83
2022/11/02 05:23:57;;;;;;;;;2.00;2.00;;;;;12.44;100.00;101497.41;4951646;28;45852;-82
2022/11/02 05:26:25;;;;;;;;;7.33;3.67;;;;;12.48;100.00;101521.53;4952146;28;45471;-82
2022/11/02 05:28:51;;;;;;;;;3.00;3.00;;;;;12.43;100.00;101511.63;4951101;28;45473;-81
2022/11/02 05:31:17;;;;;;;;;2.25;2.25;;;;;12.46;100.00;101523.25;4950595;28;45385;-82
2022/11/02 05:33:44;;;;;;;;;5.25;3.00;;;;;12.43;100.00;101523.19;4951285;28;46219;-83
2022/11/02 05:36:10;;;;;;;;;5.00;2.67;;;;;12.39;100.00;101522.22;4950645;28;45353;-82
2022/11/02 05:38:35;;;;;;;;;5.00;3.67;;;;;12.38;100.00;101524.88;4952162;28;45453;-82
2022/11/02 05:41:01;;;;;;;;;3.00;1.33;;;;;12.41;100.00;101535.63;4952595;28;45383;-82
2022/11/02 05:43:27;;;;;;;;;3.00;3.00;;;;;12.37;100.00;101534.66;4951313;28;47644;-82
2022/11/02 05:45:57;;;;;;;;;4.00;3.00;;;;;12.35;100.00;101538.16;4949984;28;45434;-82
2022/11/02 05:48:24;;;;;;;;;4.33;2.67;;;;;12.34;100.00;101542.59;4950625;28;45387;-82
2022/11/02 05:51:40;;;;;;;;;2.67;2.67;;;;;12.28;100.00;101538.91;4951309;28;44904;-82
2022/11/02 05:54:06;;;;;;;;;2.67;2.67;;;;;12.24;100.00;101545.03;4951695;28;45583;-82
2022/11/02 05:56:32;;;;;;;;;4.67;3.67;;;;;12.21;100.00;101543.22;4950996;28;45464;-82
2022/11/02 05:58:57;;;;;;;;;2.33;2.33;;;;;12.12;100.00;101535.94;4951209;28;44934;-82
2022/11/02 06:01:23;;;;;;;;;7.33;4.33;;;;;12.21;100.00;101540.56;4951083;28;44876;-83
2022/11/02 06:03:48;;;;;;;;;3.00;1.00;;;;;12.15;100.00;101530.66;4951030;28;46456;-82
2022/11/02 06:06:15;;;;;;;;;3.00;3.00;;;;;12.18;100.00;101533.41;4954946;28;45370;-84
2022/11/02 06:08:41;;;;;;;;;2.67;2.00;;;;;12.17;100.00;101530.69;4954890;28;44849;-82
2022/11/02 06:11:11;;;;;;;;;5.67;4.67;;;;;12.18;100.00;101536.06;4954899;28;45428;-82
2022/11/02 06:13:38;;;;;;;;;3.67;2.33;;;;;12.20;100.00;101537.00;4954219;28;45547;-83
2022/11/02 06:16:08;;;;;;;;;3.00;3.00;;;;;12.12;100.00;101525.28;4955227;28;44718;-82
2022/11/02 06:18:36;;;;;;;;;4.00;2.67;;;;;12.13;100.00;101528.84;4937759;28;45152;-83
2022/11/02 06:21:02;;;;;;;;;3.00;2.00;;;;;12.12;100.00;101543.00;4953070;28;45346;-82
2022/11/02 06:23:28;;;;;;;;;4.00;2.00;;;;;12.08;100.00;101546.50;4954027;28;45465;-82
2022/11/02 06:25:57;;;;;;;;;2.33;2.33;;;;;12.06;100.00;101558.88;4952771;28;45172;-83
2022/11/02 06:28:30;;;;;;;;;3.00;3.00;;;;;12.04;100.00;101557.97;4954526;28;45674;-83
2022/11/02 06:31:01;;;;;;;;;8.25;5.50;;;;;12.01;100.00;101561.47;4952165;28;45325;-82
2022/11/02 06:33:28;;;;;;;;;4.00;3.00;;;;;11.94;100.00;101559.56;4954687;28;45258;-82
2022/11/02 06:35:54;;;;;;;;;6.00;5.00;;;;;12.00;100.00;101575.69;4953065;28;45466;-82
2022/11/02 06:38:21;;;;;;;;;4.67;3.00;;;;;11.99;100.00;101579.19;4952747;28;45374;-83
2022/11/02 06:41:21;;;;;;;;;4.00;2.67;;;;;12.04;100.00;101581.94;4953397;28;45301;-83
2022/11/02 06:43:47;;;;;;;;;3.67;2.00;;;;;12.05;100.00;101574.00;4952746;28;46755;-82
2022/11/02 06:46:13;;;;;;;;;6.00;3.00;;;;;12.04;100.00;101572.22;4957975;28;45692;-83
2022/11/02 06:48:38;;;;;;;;;6.33;3.33;;;;;12.00;100.00;101571.25;4956686;28;44819;-84
2022/11/02 06:51:05;;;;;;;;;4.67;3.33;;;;;12.03;100.00;101582.84;4958499;28;45385;-83
2022/11/02 06:53:34;;;;;;;;;4.33;3.33;;;;;12.05;100.00;101583.78;4957076;28;48305;-83
2022/11/02 06:56:00;;;;;;;;;4.33;4.33;;;;;12.06;100.00;101586.47;4954999;28;45012;-83
2022/11/02 06:58:29;;;;;;;;;3.00;3.00;;;;;12.07;100.00;101590.03;4954405;28;45446;-83
2022/11/02 07:01:08;;;;;;;;;2.00;2.00;;;;;12.07;100.00;101593.59;4953509;28;45378;-83
2022/11/02 07:04:04;;;;;;;;;7.67;4.67;;;;;12.07;100.00;101601.59;4954226;28;45702;-83
2022/11/02 07:06:33;;;;;;;;;3.00;1.67;;;;;12.05;100.00;101595.31;4937957;28;45516;-83
2022/11/02 07:09:48;;;;;;;;;3.00;3.00;;;;;12.05;100.00;101595.31;4948868;28;45448;-83
2022/11/02 07:12:15;;;;;;;;;8.67;4.00;;;;;12.05;100.00;101590.00;4935119;28;45375;-83
2022/11/02 07:14:51;;;;;;;;;;;;;;;;;;;;;
2022/11/02 07:17:35;;;;;;;;;6.00;3.33;;;;;11.95;100.00;101582.66;4933037;28;74088;-83
2022/11/02 07:20:04;;;;;;;;;9.50;5.75;;;;;12.07;100.00;101606.03;4933206;28;44819;-83
2022/11/02 07:22:31;;;;;;;;;5.00;5.00;;;;;12.02;100.00;101597.94;4949714;28;45508;-83
2022/11/02 07:24:56;;;;;;;;;6.00;4.67;;;;;12.12;100.00;101594.59;4949366;28;45548;-83
2022/11/02 07:27:30;;;;;;;;;5.67;3.67;;;;;12.17;100.00;101603.59;4933085;28;45377;-84
2022/11/02 07:29:57;;;;;;;;;4.00;4.00;;;;;12.13;100.00;101604.38;4949833;28;45501;-83
2022/11/02 07:32:24;;;;;;;;;3.33;3.00;;;;;12.20;100.00;101603.66;4949345;28;45590;-83
2022/11/02 07:34:52;;;;;;;;;6.00;4.00;;;;;12.16;100.00;101593.81;4934306;28;45462;-83
2022/11/02 07:37:18;;;;;;;;;8.33;5.67;;;;;12.16;100.00;101588.47;4934438;28;45289;-83
2022/11/02 07:39:52;;;;;;;;;5.33;4.00;;;;;12.23;100.00;101593.94;4934283;28;45513;-83
2022/11/02 07:42:18;;;;;;;;;5.67;4.00;;;;;12.24;100.00;101596.63;4935223;28;44872;-83
2022/11/02 07:44:44;;;;;;;;;3.00;3.00;;;;;12.27;100.00;101602.00;4932612;28;46793;-83
2022/11/02 07:47:09;;;;;;;;;5.00;4.00;;;;;12.23;100.00;101577.94;4949439;28;45515;-83
2022/11/02 07:49:38;;;;;;;;;10.00;8.33;;;;;12.40;100.00;101608.50;4935231;28;46002;-83
2022/11/02 07:52:04;;;;;;;;;6.33;6.33;;;;;12.50;100.00;101610.50;4950348;28;45311;-83
2022/11/02 07:54:33;;;;;;;;;5.33;3.00;;;;;12.47;100.00;101604.19;4934426;28;45816;-83
2022/11/02 07:56:59;;;;;;;;;11.67;8.33;;;;;12.58;100.00;101614.22;4949433;28;44900;-83
2022/11/02 07:59:26;;;;;;;;;10.67;8.67;;;;;12.61;100.00;101618.72;4936701;28;45562;-83
2022/11/02 08:02:46;;;;;;;;;9.00;6.00;;;;;12.66;100.00;101613.47;4942089;28;45523;-82
2022/11/02 08:05:11;;;;;;;;;6.67;5.67;;;;;12.46;100.00;101579.28;4954631;28;46910;-83
2022/11/02 08:07:59;;;;;;;;;7.33;5.67;;;;;12.60;100.00;101595.56;4938191;28;44777;-83
2022/11/02 08:10:35;;;;;;;;;9.33;7.67;;;;;12.75;100.00;101617.22;4957384;28;44836;-83
2022/11/02 08:13:12;;;;;;;;;6.00;6.00;;;;;12.73;100.00;101605.59;4969829;28;45463;-84
2022/11/02 08:15:41;;;;;;;;;3.67;3.67;;;;;12.78;100.00;101608.34;4943561;28;45431;-82
2022/11/02 08:18:16;;;;;;;;;4.00;4.00;;;;;12.94;100.00;101617.56;4940579;28;45698;-80
2022/11/02 08:24:07;;;;;;;;;5.00;4.00;;;;;12.90;100.00;101583.66;4974510;28;44886;-82
2022/11/02 08:26:55;;;;;;;;;5.33;5.33;;;;;12.93;100.00;101589.97;4974907;28;45377;-81
2022/11/02 08:29:21;;;;;;;;;4.67;4.00;;;;;13.19;100.00;101621.59;4959054;28;45531;-83
2022/11/02 08:32:06;;;;;;;;;4.33;2.67;;;;;13.26;100.00;101625.25;4958393;28;45721;-84
2022/11/02 08:35:23;;;;;;;;;4.00;2.00;;;;;13.21;100.00;101603.81;4958213;28;45356;-84
2022/11/02 08:38:09;;;;;;;;;2.67;2.33;;;;;13.11;100.00;101577.78;4903014;28;45542;-85
2022/11/02 08:41:05;;;;;;;;;5.00;3.00;;;;;13.36;100.00;101616.56;4916200;29;45410;-86
2022/11/02 08:43:34;;;;;;;;;2.00;2.00;;;;;13.26;100.00;101575.38;4899491;29;45510;-84
2022/11/02 08:52:49;;;;;;;;;5.75;2.50;;;;;13.63;100.00;101632.13;4924767;28;45450;-83
2022/11/02 08:55:19;;;;;;;;;4.00;4.00;;;;;13.64;100.00;101625.03;4939868;28;45481;-82
2022/11/02 08:58:28;;;;;;;;;3.50;3.50;;;;;13.73;100.00;101635.84;4960557;28;44828;-84
2022/11/02 09:01:11;;;;;;;;;3.00;3.00;;;;;13.63;100.00;101612.50;4899320;28;45522;-83
2022/11/02 09:04:17;;;;;;;;;5.00;4.00;;;;;13.72;100.00;101605.53;4915422;28;45331;-84
2022/11/02 09:06:47;;;;;;;;;4.00;3.75;;;;;13.75;100.00;101597.53;4825662;29;45426;-84
2022/11/02 09:09:13;;;;;;;;;2.33;2.00;;;;;13.96;100.00;101614.81;4827994;29;45442;-84
2022/11/02 09:12:30;;;;;;;;;5.33;3.67;;;;;13.99;100.00;101602.34;4817410;29;45151;-84
2022/11/02 09:15:13;;;;;;;;;5.67;5.67;;;;;13.95;100.00;101596.94;4824462;29;45234;-84
2022/11/02 09:17:42;;;;;;;;;4.00;3.00;;;;;14.19;100.00;101618.66;4864021;29;44983;-86
2022/11/02 09:20:47;;;;;;;;;2.67;2.67;;;;;14.08;100.00;101581.94;4873523;29;44902;-86
2022/11/02 09:23:29;;;;;;;;;3.00;2.00;;;;;14.06;100.00;101573.94;4855382;28;45360;-85
2022/11/02 09:26:22;;;;;;;;;6.00;3.67;;;;;14.19;100.00;101581.22;4910163;28;45324;-85
2022/11/02 09:28:51;;;;;;;;;7.00;4.67;;;;;14.34;100.00;101598.34;4916124;28;45300;-82
2022/11/02 09:31:29;;;;;;;;;7.00;5.00;;;;;14.43;100.00;101598.47;4941833;28;44945;-82
2022/11/02 09:33:59;;;;;;;;;4.67;4.00;;;;;14.46;100.00;101592.25;4932800;28;45456;-80
2022/11/02 09:36:50;;;;;;;;;5.33;3.33;;;;;14.29;100.00;101559.94;4935097;28;45421;-83
2022/11/02 09:39:54;;;;;;;;;5.33;3.00;;;;;14.38;100.00;101560.03;4936650;28;45171;-83
2022/11/02 09:56:24;;;;;;;;;3.25;3.25;;;;;14.63;100.00;101560.38;4768455;29;45619;-86
2022/11/02 10:03:02;;;;;;;;;;;;;;;;;;;;;
2022/11/02 10:06:17;;;;;;;;;;;;;;;;;;;;;
2022/11/02 10:08:49;;;;;;;;;6.33;5.00;;;;;14.98;100.00;101607.13;4678974;30;64716;-82
2022/11/02 10:11:58;;;;;;;;;7.67;3.00;;;;;14.98;100.00;101601.75;4679359;30;46217;-83
2022/11/02 10:14:58;;;;;;;;;4.00;4.00;;;;;14.83;100.00;101572.16;4692417;30;45600;-82
2022/11/02 10:17:44;;;;;;;;;7.00;6.00;;;;;14.79;100.00;101560.53;4679296;30;45588;-84
2022/11/02 10:24:49;;;;;;;;;;;;;;;;;;;;;
2022/11/02 10:31:27;;;;;;;;;3.00;2.00;;;;;15.13;100.00;101613.53;4735707;30;45001;-83
2022/11/02 10:34:48;;;;;;;;;3.25;3.00;;;;;15.04;100.00;101602.72;4727967;30;45392;-82
2022/11/02 10:37:51;;;;;;;;;4.25;3.25;;;;;15.07;100.00;101610.75;4709354;30;45299;-84
2022/11/02 10:55:11;;;;;;;;;;;;;;;;;;;;;
2022/11/02 10:58:05;;;;;;;;;1.00;1.00;;;;;15.09;100.00;101587.56;4686188;30;45905;-84
2022/11/02 11:00:57;;;;;;;;;7.67;5.00;;;;;15.25;100.00;101596.63;4708619;30;45573;-83
2022/11/02 11:19:01;;;;;;;;;4.00;3.67;;;;;15.56;100.00;101579.03;4947143;28;46285;-83
2022/11/02 11:36:14;;;;;;;;;3.00;3.00;;;;;15.83;100.00;101567.59;4983820;23;45400;-84
2022/11/02 11:39:03;;;;;;;;;7.33;7.00;;;;;15.54;100.00;101511.09;4974972;28;45432;-84
2022/11/02 11:45:24;;;;;;;;;7.67;4.00;;;;;15.81;100.00;101550.59;4916489;28;45306;-83
2022/11/02 11:48:29;;;;;;;;;8.00;4.33;;;;;15.79;100.00;101541.66;4916211;29;44971;-83
2022/11/02 11:51:28;;;;;;;;;4.50;3.25;;;;;15.57;100.00;101495.94;4903115;29;45662;-84
2022/11/02 11:54:57;;;;;;;;;6.75;5.00;;;;;15.74;100.00;101514.81;4860208;29;46051;-84
2022/11/02 12:08:53;;;;;;;;;;;;;;;;;;;;;
2022/11/02 12:11:25;;;;;;;;;5.50;5.00;;;;;16.05;100.00;101531.03;4742912;30;72092;-84
2022/11/02 12:14:49;;;;;;;;;4.75;4.75;;;;;16.01;100.00;101523.88;4754853;30;44775;-86
2022/11/02 12:25:01;;;;;;;;;;;;;;;;;;;;;
2022/11/02 12:42:26;;;;;;;;;5.75;4.00;;;;;16.17;99.32;101472.03;5010857;23;46930;-88
2022/11/02 12:48:33;;;;;;;;;6.50;5.75;;;;;16.18;100.00;101430.03;4919209;28;45427;-84
2022/11/02 12:51:16;;;;;;;;;9.00;3.75;;;;;16.33;100.00;101423.78;4917023;28;44769;-85
2022/11/02 12:54:12;;;;;;;;;;;;;;;;;;;;;
2022/11/02 12:57:02;;;;;;;;;5.00;3.00;;;;;16.54;98.01;101420.19;4922175;28;74490;-85
2022/11/02 12:59:41;;;;;;;;;6.50;4.75;;;;;16.49;96.86;101398.72;4928347;28;44769;-84
2022/11/02 13:02:20;;;;;;;;;5.00;4.00;;;;;16.51;96.90;101418.41;4919354;29;45318;-83
2022/11/02 13:06:01;;;;;;;;;4.00;4.00;;;;;16.49;92.81;101398.72;4886086;29;45411;-85
2022/11/02 13:08:21;;;;;;;;;5.25;3.75;;;;;16.71;95.52;101437.22;4885557;28;45560;-84
2022/11/02 13:11:08;;;;;;;;;6.00;3.25;;;;;16.66;94.61;101413.94;4937045;28;44799;-84
2022/11/02 13:17:15;;;;;;;;;;;;;;;;;;;;;
2022/11/02 13:20:30;;;;;;;;;5.75;2.00;;;;;16.90;92.49;101397.81;4909791;28;74670;-84
2022/11/02 13:24:08;;;;;;;;;5.50;4.25;;;;;16.81;91.73;101373.69;4877745;29;44921;-82
2022/11/02 13:27:01;;;;;;;;;3.00;3.00;;;;;16.67;90.82;101348.59;4881389;29;45444;-82
2022/11/02 13:31:11;;;;;;;;;5.00;3.25;;;;;16.59;90.97;101340.53;4880050;29;45596;-84
2022/11/02 13:33:52;;;;;;;;;7.00;5.00;;;;;16.83;85.61;101377.25;4891469;29;45060;-84
2022/11/02 13:36:27;;;;;;;;;5.00;2.75;;;;;16.76;89.67;101359.31;4847008;29;45400;-83
2022/11/02 13:39:53;;;;;;;;;;;;;;;;;;;;;
2022/11/02 13:43:31;;;;;;;;;2.00;2.00;;;;;16.92;90.11;101361.09;4861577;29;64754;-86
2022/11/02 13:51:10;;;;;;;;;;;;;;;;;;;;;
2022/11/02 13:54:02;;;;;;;;;2.00;2.00;;;;;17.14;84.52;101350.31;4925789;28;68177;-83
2022/11/02 13:56:36;;;;;;;;;5.00;4.00;;;;;17.17;85.93;101355.69;4920036;28;45418;-85
2022/11/02 14:23:17;;;;;;;;;3.33;3.00;;;;;17.31;81.42;101321.56;3255137;23;46061;-86
2022/11/02 14:26:38;;;;;;;;;2.25;2.25;;;;;17.28;82.97;101318.88;4959506;28;45665;-84
2022/11/02 14:29:45;;;;;;;;;4.50;2.00;;;;;17.12;83.75;101282.22;4898409;29;45268;-84
2022/11/02 14:32:20;;;;;;;;;7.50;4.00;;;;;17.37;83.48;101308.09;4907248;29;46955;-83
2022/11/02 14:35:17;;;;;;;;;2.00;2.00;;;;;17.39;84.08;101319.75;4894516;29;46094;-82
2022/11/02 14:38:37;;;;;;;;;2.25;2.25;;;;;17.34;80.07;101309.91;4879093;29;44837;-83
2022/11/02 14:41:26;;;;;;;;;6.00;3.75;;;;;17.35;81.30;101323.34;4872254;29;45383;-84
2022/11/02 14:44:48;;;;;;;;;;;;;;;;;;;;;
2022/11/02 14:47:23;;;;;;;;;2.00;2.00;;;;;17.35;81.56;101326.03;4859017;29;71020;-84
2022/11/02 14:50:16;;;;;;;;;6.50;5.25;;;;;17.18;79.77;101290.25;4860961;29;45547;-84
2022/11/02 14:53:41;;;;;;;;;3.00;1.00;;;;;17.22;80.38;101316.22;4997091;23;46409;-85
2022/11/02 14:56:07;;;;;;;;;2.00;2.00;;;;;17.10;81.52;101306.41;4938048;28;45441;-83
2022/11/02 14:59:14;;;;;;;;;4.00;2.75;;;;;17.18;80.90;101312.66;4937495;28;45404;-84
2022/11/02 15:02:14;;;;;;;;;2.25;2.00;;;;;16.98;81.12;101280.47;4930256;28;45513;-83
2022/11/02 15:04:51;;;;;;;;;3.75;2.25;;;;;16.95;79.55;101280.50;4937395;28;45365;-82
2022/11/02 15:07:39;;;;;;;;;4.50;3.00;;;;;16.77;80.76;101262.63;4972292;28;45386;-84
2022/11/02 15:10:58;;;;;;;;;3.00;3.00;;;;;16.92;81.24;101290.38;4953895;28;45980;-85
2022/11/02 15:20:27;;;;;;;;;3.33;3.00;;;;;16.79;82.48;101278.75;4902126;29;45467;-82
2022/11/02 15:23:32;;;;;;;;;3.00;3.00;;;;;16.75;81.42;101285.91;4868477;29;44919;-83
2022/11/02 15:26:05;;;;;;;;;5.00;2.00;;;;;16.58;81.11;101274.28;4916128;29;45433;-84
2022/11/02 15:28:42;;;;;;;;;3.00;1.75;;;;;16.43;81.37;101258.25;4917667;29;45553;-84
2022/11/02 15:34:40;;;;;;;;;1.33;1.33;;;;;16.17;82.74;101254.66;4862353;29;44730;-85